Time;durP1;ratioP1;P1;durP2;ratioP2;P2;SDS_P1;SDS_P2;PMS_P1;PMS_P2;Temp;Humidity;BMP_temperature;BMP_pressure;BME280_temperature;BME280_humidity;BME280_pressure;Samples;Min_cycle;Max_cycle;Signal;HPM_P1;HPM_P2
2023/01/06 00:00:38;;;;;;;13.15;6.75;;;;;;;9.18;100.00;101779.78;5047529;28;20036;-56
2023/01/06 00:03:04;;;;;;;12.10;6.55;;;;;;;9.20;100.00;101783.19;5049043;28;20025;-57
2023/01/06 00:05:30;;;;;;;12.18;6.53;;;;;;;9.20;100.00;101775.25;5051701;28;20123;-56
2023/01/06 00:07:56;;;;;;;12.00;5.78;;;;;;;9.21;100.00;101776.13;5052744;28;20060;-56
2023/01/06 00:10:22;;;;;;;8.90;6.00;;;;;;;9.21;100.00;101776.97;5053801;28;20024;-55
2023/01/06 00:12:48;;;;;;;12.07;6.38;;;;;;;9.21;100.00;101774.31;5041729;28;20123;-56
2023/01/06 00:15:16;;;;;;;11.80;6.03;;;;;;;9.22;100.00;101772.50;5053036;28;20024;-56
2023/01/06 00:17:41;;;;;;;9.23;5.38;;;;;;;9.23;100.00;101758.34;5061844;28;20031;-55
2023/01/06 00:20:07;;;;;;;10.75;5.18;;;;;;;9.24;100.00;101760.91;5045753;28;20025;-55
2023/01/06 00:22:32;;;;;;;13.63;5.40;;;;;;;9.24;100.00;101760.03;5049581;28;20524;-56
2023/01/06 00:24:58;;;;;;;7.65;4.55;;;;;;;9.26;100.00;101759.00;5053466;28;20037;-56
2023/01/06 00:27:23;;;;;;;7.78;4.70;;;;;;;9.26;100.00;101759.00;5051941;28;20032;-55
2023/01/06 00:29:49;;;;;;;11.30;4.70;;;;;;;9.27;100.00;101759.84;5053524;28;20379;-56
2023/01/06 00:32:16;;;;;;;7.90;4.20;;;;;;;9.26;100.00;101753.69;5052450;28;20078;-57
2023/01/06 00:34:41;;;;;;;9.82;4.55;;;;;;;9.28;100.00;101753.63;5042986;28;20029;-55
2023/01/06 00:37:07;;;;;;;9.07;4.00;;;;;;;9.26;100.00;101756.34;5052657;28;20028;-55
2023/01/06 00:39:32;;;;;;;7.45;4.10;;;;;;;9.29;100.00;101757.13;5048505;28;20427;-55
2023/01/06 00:42:03;;;;;;;9.73;4.20;;;;;;;9.28;100.00;101752.78;5053188;28;20029;-55
2023/01/06 00:44:34;;;;;;;8.75;4.40;;;;;;;9.29;100.00;101751.81;5052867;28;20032;-54
2023/01/06 00:47:00;;;;;;;8.85;4.15;;;;;;;9.28;100.00;101750.13;5056264;28;20017;-52
2023/01/06 00:49:26;;;;;;;5.50;3.70;;;;;;;9.29;100.00;101755.31;5045440;28;20124;-56
2023/01/06 00:51:52;;;;;;;10.15;4.05;;;;;;;9.29;100.00;101750.00;5057512;28;20449;-55
2023/01/06 00:54:18;;;;;;;7.22;4.00;;;;;;;9.28;100.00;101744.81;5050801;28;20021;-56
2023/01/06 00:56:49;;;;;;;11.18;3.78;;;;;;;9.29;100.00;101750.00;5056541;28;20418;-54
2023/01/06 00:59:17;;;;;;;7.38;3.78;;;;;;;9.28;100.00;101745.66;5048619;28;20021;-56
2023/01/06 01:01:43;;;;;;;8.43;3.72;;;;;;;9.32;100.00;101754.28;5055697;28;20028;-56
2023/01/06 01:04:09;;;;;;;4.70;3.40;;;;;;;9.30;100.00;101748.22;5056279;28;20032;-55
2023/01/06 01:06:36;;;;;;;12.18;4.10;;;;;;;9.30;100.00;101754.38;5056600;28;20378;-57
2023/01/06 01:09:03;;;;;;;8.02;3.78;;;;;;;9.30;100.00;101741.13;5045027;28;20480;-53
2023/01/06 01:14:16;;;;;;;9.43;3.80;;;;;;;9.30;100.00;101737.63;5056694;28;20410;-56
2023/01/06 01:16:42;;;;;;;7.43;3.50;;;;;;;9.28;100.00;101735.06;5056837;28;20025;-55
2023/01/06 01:19:08;;;;;;;9.02;3.60;;;;;;;9.29;100.00;101744.72;5044131;28;20365;-55
2023/01/06 01:21:33;;;;;;;5.05;3.20;;;;;;;9.29;100.00;101735.91;5056689;28;20086;-57
2023/01/06 01:23:59;;;;;;;6.65;3.60;;;;;;;9.29;100.00;101734.09;5056486;28;20044;-56
2023/01/06 01:26:24;;;;;;;9.57;3.22;;;;;;;9.28;100.00;101735.06;5049356;28;20479;-53
2023/01/06 01:28:49;;;;;;;6.32;2.70;;;;;;;9.28;100.00;101739.53;5053517;28;20087;-52
2023/01/06 01:31:15;;;;;;;5.05;2.67;;;;;;;9.28;100.00;101732.41;5057412;28;20020;-52
2023/01/06 01:33:41;;;;;;;7.07;2.88;;;;;;;9.28;100.00;101729.75;5059916;28;20031;-55
2023/01/06 01:36:13;;;;;;;7.82;2.63;;;;;;;9.29;100.00;101717.34;5050395;28;20467;-55
2023/01/06 01:38:38;;;;;;;7.53;2.97;;;;;;;9.29;100.00;101727.97;5056535;28;20032;-53
2023/01/06 01:41:04;;;;;;;4.60;2.50;;;;;;;9.28;100.00;101726.25;5056796;28;20029;-52
2023/01/06 01:43:50;;;;;;;6.72;2.40;;;;;;;9.30;100.00;101716.41;5056716;28;20068;-56
2023/01/06 01:46:32;;;;;;;4.28;2.28;;;;;;;9.29;100.00;101710.25;5048047;28;20386;-55
2023/01/06 01:49:02;;;;;;;6.70;2.42;;;;;;;9.24;100.00;101707.00;5050039;28;20022;-57
2023/01/06 01:51:32;;;;;;;5.18;2.28;;;;;;;9.28;100.00;101702.41;5049732;28;20029;-56
2023/01/06 01:54:01;;;;;;;5.43;2.03;;;;;;;9.28;100.00;101705.06;5044232;28;20096;-56
2023/01/06 01:56:31;;;;;;;7.38;2.30;;;;;;;9.26;100.00;101695.38;5055988;28;20037;-53
2023/01/06 01:59:06;;;;;;;8.35;2.22;;;;;;;9.26;100.00;101683.94;5049538;28;20036;-54
2023/01/06 02:01:31;;;;;;;5.70;2.35;;;;;;;9.25;100.00;101700.78;5054324;28;20037;-53
2023/01/06 02:03:58;;;;;;;5.78;2.22;;;;;;;9.26;100.00;101699.84;5029321;28;20544;-56
2023/01/06 02:06:25;;;;;;;4.78;2.10;;;;;;;9.26;100.00;101689.25;5054307;28;20035;-56
2023/01/06 02:09:11;;;;;;;8.27;2.20;;;;;;;9.26;100.00;101689.25;5047095;28;20075;-57
2023/01/06 02:11:39;;;;;;;4.40;1.90;;;;;;;9.26;100.00;101697.19;5055775;28;20028;-55
2023/01/06 02:14:16;;;;;;;5.57;2.20;;;;;;;9.29;100.00;101701.44;5055537;28;20029;-53
2023/01/06 02:16:49;;;;;;;3.83;1.70;;;;;;;9.27;100.00;101696.22;5049061;28;20064;-54
2023/01/06 02:19:51;;;;;;;4.32;2.08;;;;;;;9.33;100.00;101695.88;5051844;28;20048;-57
2023/01/06 02:22:28;;;;;;;6.72;2.17;;;;;;;9.30;100.00;101690.75;5037541;28;20029;-54
2023/01/06 02:25:21;;;;;;;2.63;1.58;;;;;;;9.30;100.00;101693.41;5040589;28;20100;-57
2023/01/06 02:28:17;;;;;;;5.22;1.63;;;;;;;9.34;100.00;101688.78;5049763;28;20041;-60
2023/01/06 02:31:00;;;;;;;4.30;1.95;;;;;;;9.33;100.00;101684.44;5040148;28;20395;-54
2023/01/06 02:33:51;;;;;;;7.25;1.48;;;;;;;9.33;100.00;101665.88;5055595;28;20054;-53
2023/01/06 02:36:33;;;;;;;3.40;1.63;;;;;;;9.32;100.00;101661.50;5045305;28;20386;-57
2023/01/06 02:39:25;;;;;;;4.50;1.45;;;;;;;9.32;100.00;101666.81;5041104;28;20123;-56
2023/01/06 02:41:50;;;;;;;5.82;1.65;;;;;;;9.31;100.00;101658.00;5051357;28;20547;-56
2023/01/06 02:44:28;;;;;;;3.97;1.60;;;;;;;9.32;100.00;101650.91;5053896;28;20102;-56
2023/01/06 02:47:03;;;;;;;2.78;1.50;;;;;;;9.32;100.00;101643.78;5055275;28;20029;-51
2023/01/06 02:49:32;;;;;;;3.30;1.50;;;;;;;9.33;100.00;101642.88;5043650;28;20036;-56
2023/01/06 02:52:11;;;;;;;5.32;1.65;;;;;;;9.34;100.00;101641.94;5059535;28;20032;-56
2023/01/06 02:54:45;;;;;;;;;;;;;;;9.37;100.00;101641.72;5052403;28;20028;-55
2023/01/06 02:57:31;;;;;;;4.78;1.50;;;;;;;9.38;100.00;101639.94;5045578;28;19927;-54
2023/01/06 03:00:10;;;;;;;3.53;1.55;;;;;;;9.34;100.00;101636.63;5054090;28;20021;-55
2023/01/06 03:02:38;;;;;;;3.90;1.70;;;;;;;9.36;100.00;101640.03;5056248;28;20036;-54
2023/01/06 03:05:05;;;;;;;5.43;1.60;;;;;;;9.35;100.00;101632.16;5050789;28;20040;-55
2023/01/06 03:07:32;;;;;;;4.40;1.70;;;;;;;9.36;100.00;101632.09;5050395;28;20071;-54
2023/01/06 03:10:00;;;;;;;4.07;1.40;;;;;;;9.39;100.00;101631.91;5054284;28;20048;-56
2023/01/06 03:12:35;;;;;;;4.40;1.70;;;;;;;9.38;100.00;101632.00;5042547;28;20049;-58
2023/01/06 03:15:01;;;;;;;4.90;1.67;;;;;;;9.38;100.00;101622.22;5054352;28;20112;-56
2023/01/06 03:17:27;;;;;;;6.60;1.65;;;;;;;9.37;100.00;101619.66;5053395;28;20427;-54
2023/01/06 03:19:53;;;;;;;4.88;1.65;;;;;;;9.37;100.00;101615.22;5053543;28;20348;-53
2023/01/06 03:22:19;;;;;;;3.40;1.60;;;;;;;9.37;100.00;101612.56;5053914;28;20072;-56
2023/01/06 03:24:45;;;;;;;3.85;1.50;;;;;;;9.38;100.00;101608.97;5054246;28;20036;-57
2023/01/06 03:27:11;;;;;;;4.88;1.48;;;;;;;9.39;100.00;101605.41;5049360;28;20032;-56
2023/01/06 03:29:37;;;;;;;3.88;1.80;;;;;;;9.38;100.00;101619.59;5044438;28;20036;-56
2023/01/06 03:32:16;;;;;;;4.13;1.60;;;;;;;9.38;100.00;101632.00;5050654;28;20029;-56
2023/01/06 03:35:12;;;;;;;7.13;1.50;;;;;;;9.39;100.00;101618.66;5049029;28;20029;-55
2023/01/06 03:37:53;;;;;;;3.70;1.60;;;;;;;9.40;100.00;101623.00;5049177;28;20060;-55
2023/01/06 03:40:36;;;;;;;3.90;1.58;;;;;;;9.42;100.00;101607.84;5051295;28;20052;-55
2023/01/06 03:43:23;;;;;;;3.70;1.70;;;;;;;9.42;100.00;101597.22;5054953;28;20471;-55
2023/01/06 03:45:56;;;;;;;5.80;1.88;;;;;;;9.43;100.00;101609.56;5052810;28;20057;-57
2023/01/06 03:48:28;;;;;;;3.60;1.77;;;;;;;9.43;100.00;101609.56;5053575;28;20134;-57
2023/01/06 03:51:06;;;;;;;5.90;1.70;;;;;;;9.43;100.00;101620.16;5053466;28;20363;-53
2023/01/06 03:53:45;;;;;;;5.72;1.55;;;;;;;9.42;100.00;101607.00;5051530;28;20483;-54
2023/01/06 03:56:22;;;;;;;2.85;1.83;;;;;;;9.43;100.00;101606.91;5044038;28;20033;-54
2023/01/06 03:58:53;;;;;;;5.22;1.73;;;;;;;9.43;100.00;101608.72;5051465;28;20112;-56
2023/01/06 04:01:22;;;;;;;8.27;2.35;;;;;;;9.43;100.00;101611.38;5051813;28;20502;-56
2023/01/06 04:03:51;;;;;;;3.67;1.90;;;;;;;9.44;100.00;101592.72;5053394;28;20037;-56
2023/01/06 04:06:16;;;;;;;6.80;2.00;;;;;;;9.44;100.00;101594.50;5053568;28;20021;-55
2023/01/06 04:08:42;;;;;;;4.50;1.73;;;;;;;9.48;100.00;101592.53;5051434;28;20036;-53
2023/01/06 04:11:07;;;;;;;5.30;1.70;;;;;;;9.50;100.00;101586.19;5052535;28;20033;-55
2023/01/06 04:13:32;;;;;;;3.88;1.60;;;;;;;9.51;100.00;101577.28;5053165;28;20136;-54
2023/01/06 04:15:58;;;;;;;2.10;1.60;;;;;;;9.52;100.00;101580.78;5052862;28;20017;-55
2023/01/06 04:18:23;;;;;;;6.72;1.83;;;;;;;9.53;100.00;101583.34;5051423;28;20029;-56
2023/01/06 04:20:48;;;;;;;3.08;1.73;;;;;;;9.52;100.00;101573.66;5052420;28;20032;-54
2023/01/06 04:23:14;;;;;;;4.57;1.50;;;;;;;9.55;100.00;101568.19;5056433;28;20067;-54
2023/01/06 04:25:39;;;;;;;2.47;1.50;;;;;;;9.54;100.00;101566.50;5052772;28;20078;-56
2023/01/06 04:28:04;;;;;;;4.32;1.50;;;;;;;9.54;100.00;101568.28;5053316;28;20108;-52
2023/01/06 04:30:30;;;;;;;1.77;1.30;;;;;;;9.54;100.00;101568.28;5040816;28;20021;-54
2023/01/06 04:32:55;;;;;;;3.78;1.75;;;;;;;9.53;100.00;101553.34;5053226;28;20108;-53
2023/01/06 04:35:20;;;;;;;2.95;1.50;;;;;;;9.53;100.00;101548.03;5053403;28;20468;-54
2023/01/06 04:37:45;;;;;;;4.35;1.45;;;;;;;9.53;100.00;101559.47;5056575;28;20076;-53
2023/01/06 04:40:11;;;;;;;2.85;1.30;;;;;;;9.54;100.00;101541.75;5050977;28;20112;-53
2023/01/06 04:45:21;;;;;;;4.10;1.45;;;;;;;9.55;100.00;101533.72;5052990;28;20556;-54
2023/01/06 04:47:46;;;;;;;2.90;1.50;;;;;;;9.55;100.00;101525.75;5052132;28;20029;-54
2023/01/06 04:50:11;;;;;;;3.08;1.55;;;;;;;9.55;100.00;101520.44;5052989;28;20021;-53
2023/01/06 04:52:37;;;;;;;3.60;1.45;;;;;;;9.54;100.00;101521.41;5051970;28;20021;-54
2023/01/06 04:55:03;;;;;;;2.45;1.02;;;;;;;9.55;100.00;101525.75;5049163;28;20044;-53
2023/01/06 04:57:28;;;;;;;3.03;1.15;;;;;;;9.56;100.00;101531.91;5052905;28;20080;-56
2023/01/06 04:59:53;;;;;;;3.88;1.23;;;;;;;9.55;100.00;101525.75;5051669;28;20024;-52
2023/01/06 05:02:18;;;;;;;3.38;1.45;;;;;;;9.56;100.00;101531.91;5045993;28;20021;-55
2023/01/06 05:04:44;;;;;;;2.22;1.30;;;;;;;9.54;100.00;101521.41;5052505;28;20111;-53
2023/01/06 05:07:09;;;;;;;3.80;1.27;;;;;;;9.54;100.00;101526.72;5053257;28;20031;-53
2023/01/06 05:09:34;;;;;;;6.13;1.38;;;;;;;9.53;100.00;101516.19;5049102;28;20038;-56
2023/01/06 05:11:59;;;;;;;1.70;1.27;;;;;;;9.56;100.00;101513.34;5045053;28;20081;-55
2023/01/06 05:14:25;;;;;;;2.45;1.20;;;;;;;9.55;100.00;101503.69;5052573;28;20053;-56
2023/01/06 05:16:50;;;;;;;3.17;1.45;;;;;;;9.54;100.00;101500.19;5053026;28;20025;-55
2023/01/06 05:19:16;;;;;;;3.92;1.10;;;;;;;9.53;100.00;101510.91;5051411;28;20029;-54
2023/01/06 05:21:41;;;;;;;1.30;0.95;;;;;;;9.53;100.00;101506.44;5053178;28;20025;-54
2023/01/06 05:24:08;;;;;;;2.92;1.30;;;;;;;9.53;100.00;101517.03;5052706;28;20100;-55
2023/01/06 05:26:33;;;;;;;4.20;1.30;;;;;;;9.52;100.00;101514.50;5053798;28;20032;-53
2023/01/06 05:28:59;;;;;;;3.15;1.38;;;;;;;9.51;100.00;101518.06;5045088;28;20077;-53
2023/01/06 05:31:24;;;;;;;2.60;1.13;;;;;;;9.52;100.00;101514.50;5045062;28;20403;-55
2023/01/06 05:33:49;;;;;;;4.47;1.40;;;;;;;9.51;100.00;101518.06;5055224;28;20395;-54
2023/01/06 05:36:16;;;;;;;4.00;1.40;;;;;;;9.52;100.00;101517.13;5056404;28;20031;-53
2023/01/06 05:38:42;;;;;;;1.52;1.27;;;;;;;9.53;100.00;101526.81;5056446;28;20031;-55
2023/01/06 05:41:08;;;;;;;2.15;1.20;;;;;;;9.56;100.00;101526.59;5047586;28;20030;-54
2023/01/06 05:43:35;;;;;;;4.82;1.40;;;;;;;9.54;100.00;101529.38;5054379;28;20474;-51
2023/01/06 05:46:08;;;;;;;3.60;1.42;;;;;;;9.55;100.00;101527.56;5056497;28;20025;-53
2023/01/06 05:48:34;;;;;;;3.63;1.10;;;;;;;9.53;100.00;101530.31;5055952;28;20041;-56
2023/01/06 05:51:04;;;;;;;1.50;1.40;;;;;;;9.53;100.00;101524.16;5053661;28;20169;-55
2023/01/06 05:53:31;;;;;;;2.58;1.33;;;;;;;9.54;100.00;101532.03;5054111;28;20479;-56
2023/01/06 05:56:05;;;;;;;5.63;1.67;;;;;;;9.53;100.00;101530.31;5056031;28;20039;-56
2023/01/06 05:58:32;;;;;;;2.65;1.40;;;;;;;9.53;100.00;101529.47;5055326;28;20039;-57
2023/01/06 06:01:01;;;;;;;2.45;1.35;;;;;;;9.57;100.00;101528.31;5052172;28;20064;-55
2023/01/06 06:03:26;;;;;;;4.63;1.30;;;;;;;9.55;100.00;101531.06;5056074;28;20087;-53
2023/01/06 06:05:52;;;;;;;2.40;1.35;;;;;;;9.53;100.00;101530.31;5055383;28;20021;-56
2023/01/06 06:08:17;;;;;;;2.25;1.30;;;;;;;9.56;100.00;101521.28;5052181;28;20022;-54
2023/01/06 06:10:42;;;;;;;1.95;1.00;;;;;;;9.56;100.00;101526.59;5054684;28;20051;-55
2023/01/06 06:13:08;;;;;;;4.88;1.30;;;;;;;9.54;100.00;101518.75;5052899;28;20069;-53
2023/01/06 06:15:33;;;;;;;4.75;1.35;;;;;;;9.55;100.00;101524.91;5051365;28;20107;-53
2023/01/06 06:18:00;;;;;;;3.85;1.48;;;;;;;9.53;100.00;101522.34;5053347;28;20107;-53
2023/01/06 06:20:26;;;;;;;1.67;1.30;;;;;;;9.55;100.00;101520.44;5055398;28;20032;-52
2023/01/06 06:22:51;;;;;;;1.70;1.20;;;;;;;9.55;100.00;101524.91;5051811;28;20031;-55
2023/01/06 06:25:17;;;;;;;2.03;1.17;;;;;;;9.55;100.00;101527.56;5055507;28;20033;-51
2023/01/06 06:27:42;;;;;;;4.97;1.38;;;;;;;9.55;100.00;101528.41;5055194;28;20124;-52
2023/01/06 06:30:07;;;;;;;2.17;1.20;;;;;;;9.57;100.00;101533.63;5052758;28;20037;-53
2023/01/06 06:32:33;;;;;;;2.50;1.23;;;;;;;9.57;100.00;101528.31;5043643;28;20079;-53
2023/01/06 06:34:58;;;;;;;2.38;1.33;;;;;;;9.58;100.00;101528.22;5054640;28;20025;-54
2023/01/06 06:37:23;;;;;;;1.60;1.17;;;;;;;9.58;100.00;101524.72;5040814;28;20033;-55
2023/01/06 06:39:49;;;;;;;1.67;1.10;;;;;;;9.58;100.00;101524.72;5054788;28;20029;-53
2023/01/06 06:42:14;;;;;;;1.95;1.55;;;;;;;9.60;100.00;101523.66;5047008;28;20048;-56
2023/01/06 06:44:39;;;;;;;3.42;1.48;;;;;;;9.60;100.00;101523.66;5053656;28;20037;-54
2023/01/06 06:47:04;;;;;;;2.10;1.35;;;;;;;9.59;100.00;101524.63;5054354;28;20059;-55
2023/01/06 06:49:30;;;;;;;4.55;1.42;;;;;;;9.58;100.00;101519.41;5052191;28;20021;-53
2023/01/06 06:51:55;;;;;;;3.70;1.50;;;;;;;9.57;100.00;101528.31;5054876;28;20036;-54
2023/01/06 06:54:20;;;;;;;3.17;1.55;;;;;;;9.56;100.00;101531.91;5046514;28;20025;-56
2023/01/06 06:56:46;;;;;;;2.90;1.60;;;;;;;9.52;100.00;101528.59;5052494;28;20041;-54
2023/01/06 06:59:11;;;;;;;3.78;1.52;;;;;;;9.50;100.00;101529.66;5054458;28;20499;-56
2023/01/06 07:01:36;;;;;;;2.25;1.50;;;;;;;9.47;100.00;101535.13;5054136;28;20025;-56
2023/01/06 07:04:02;;;;;;;2.38;1.60;;;;;;;9.44;100.00;101541.47;5049304;28;20455;-54
2023/01/06 07:06:27;;;;;;;2.85;1.65;;;;;;;9.42;100.00;101553.97;5052130;28;20111;-55
2023/01/06 07:08:53;;;;;;;2.88;1.80;;;;;;;9.40;100.00;101548.75;5047355;28;20056;-53
2023/01/06 07:11:19;;;;;;;4.38;2.00;;;;;;;9.38;100.00;101555.94;5054133;28;20397;-54
2023/01/06 07:13:45;;;;;;;3.13;1.80;;;;;;;9.35;100.00;101558.78;5051485;28;20061;-55
2023/01/06 07:16:10;;;;;;;2.53;1.88;;;;;;;9.34;100.00;101558.88;5042925;28;20025;-55
2023/01/06 07:18:36;;;;;;;2.47;1.88;;;;;;;9.32;100.00;101548.34;5045516;28;20029;-56
2023/01/06 07:21:02;;;;;;;4.03;2.05;;;;;;;9.31;100.00;101554.63;5038544;28;20064;-56
2023/01/06 07:23:29;;;;;;;2.38;2.05;;;;;;;9.29;100.00;101547.69;5049936;28;20088;-55
2023/01/06 07:25:59;;;;;;;3.40;2.13;;;;;;;9.26;100.00;101552.25;5048570;28;20041;-57
2023/01/06 07:28:26;;;;;;;2.25;1.85;;;;;;;9.26;100.00;101546.09;5050505;28;20052;-56
2023/01/06 07:30:53;;;;;;;3.80;2.30;;;;;;;9.24;100.00;101546.19;5044176;28;20128;-56
2023/01/06 07:33:18;;;;;;;2.58;2.15;;;;;;;9.24;100.00;101543.53;5038492;28;20399;-55
2023/01/06 07:35:44;;;;;;;5.15;2.20;;;;;;;9.23;100.00;101539.16;5047050;28;20334;-55
2023/01/06 07:38:10;;;;;;;2.35;2.10;;;;;;;9.23;100.00;101538.31;5038468;28;20033;-56
2023/01/06 07:40:35;;;;;;;2.88;1.90;;;;;;;9.21;100.00;101543.72;5040703;28;20056;-55
2023/01/06 07:43:09;;;;;;;2.72;2.15;;;;;;;9.20;100.00;101552.59;5042740;28;20036;-53
2023/01/06 07:45:34;;;;;;;3.90;2.15;;;;;;;9.20;100.00;101552.59;5042021;28;20040;-52
2023/01/06 07:48:00;;;;;;;5.30;1.85;;;;;;;9.20;100.00;101554.41;5042001;28;20040;-55
2023/01/06 07:50:26;;;;;;;2.58;2.22;;;;;;;9.21;100.00;101562.28;5038109;28;20021;-53
2023/01/06 07:52:52;;;;;;;2.38;2.08;;;;;;;9.22;100.00;101566.59;5039910;28;20069;-52
2023/01/06 07:55:17;;;;;;;3.38;1.77;;;;;;;9.22;100.00;101577.22;5036148;28;20084;-53
2023/01/06 07:57:43;;;;;;;1.95;1.70;;;;;;;9.25;100.00;101579.69;5043350;28;20274;-57
2023/01/06 08:00:09;;;;;;;4.93;2.50;;;;;;;9.25;100.00;101577.03;5038559;28;20104;-57
2023/01/06 08:02:34;;;;;;;3.58;1.85;;;;;;;9.26;100.00;101592.00;5042154;28;20395;-53
2023/01/06 08:05:00;;;;;;;4.95;2.22;;;;;;;9.29;100.00;101598.06;5037344;28;20048;-56
2023/01/06 08:07:25;;;;;;;3.03;1.73;;;;;;;9.29;100.00;101588.31;5043096;28;20103;-52
2023/01/06 08:09:51;;;;;;;2.03;1.92;;;;;;;9.31;100.00;101583.78;5039841;28;20386;-54
2023/01/06 08:12:17;;;;;;;2.35;1.75;;;;;;;9.32;100.00;101582.81;5038415;28;20045;-53
2023/01/06 08:14:43;;;;;;;4.70;1.88;;;;;;;9.33;100.00;101586.34;5033591;28;20464;-54
2023/01/06 08:17:09;;;;;;;2.20;1.80;;;;;;;9.33;100.00;101592.50;5037807;28;20563;-57
2023/01/06 08:19:34;;;;;;;3.03;2.00;;;;;;;9.35;100.00;101593.25;5044991;28;20029;-54
2023/01/06 08:22:00;;;;;;;2.30;2.00;;;;;;;9.36;100.00;101597.63;5045924;28;20041;-52
2023/01/06 08:24:26;;;;;;;3.60;2.38;;;;;;;9.38;100.00;101606.31;5051073;28;20037;-54
2023/01/06 08:26:51;;;;;;;2.50;2.17;;;;;;;9.40;100.00;101607.09;5051506;28;20132;-56
2023/01/06 08:29:16;;;;;;;1.95;1.85;;;;;;;9.41;100.00;101606.16;5045121;28;20462;-54
2023/01/06 08:31:42;;;;;;;2.40;2.20;;;;;;;9.43;100.00;101608.72;5052047;28;20045;-53
2023/01/06 08:34:07;;;;;;;3.50;1.92;;;;;;;9.44;100.00;101616.56;5041556;28;20036;-54
2023/01/06 08:36:32;;;;;;;2.83;2.00;;;;;;;9.47;100.00;101615.53;5052744;28;20060;-56
2023/01/06 08:38:58;;;;;;;2.40;2.20;;;;;;;9.49;100.00;101618.94;5049842;28;20025;-52
2023/01/06 08:41:23;;;;;;;3.10;2.15;;;;;;;9.50;100.00;101617.16;5049201;28;20103;-55
2023/01/06 08:43:49;;;;;;;2.50;2.25;;;;;;;9.52;100.00;101639.13;5047979;28;20044;-53
2023/01/06 08:46:18;;;;;;;2.97;2.30;;;;;;;9.52;100.00;101637.31;5043710;28;20049;-57
2023/01/06 08:48:44;;;;;;;2.63;2.43;;;;;;;9.54;100.00;101646.06;5050266;28;20075;-55
2023/01/06 08:51:16;;;;;;;4.15;2.35;;;;;;;9.54;100.00;101648.72;5045925;28;20060;-52
2023/01/06 08:53:43;;;;;;;2.83;2.60;;;;;;;9.55;100.00;101647.75;5051077;28;20029;-54
2023/01/06 08:56:14;;;;;;;5.20;2.95;;;;;;;9.57;100.00;101645.84;5045207;28;20044;-57
2023/01/06 08:58:40;;;;;;;3.03;2.80;;;;;;;9.56;100.00;101651.25;5049784;28;20037;-54
2023/01/06 09:01:05;;;;;;;3.47;3.17;;;;;;;9.57;100.00;101652.97;5047981;28;20708;-52
2023/01/06 09:03:30;;;;;;;5.97;2.92;;;;;;;9.60;100.00;101668.69;5048924;28;20024;-51
2023/01/06 09:05:57;;;;;;;2.92;2.72;;;;;;;9.61;100.00;101667.75;5039686;28;20067;-52
2023/01/06 09:08:23;;;;;;;3.45;3.15;;;;;;;9.62;100.00;101659.69;5055539;28;20033;-55
2023/01/06 09:10:49;;;;;;;5.95;3.60;;;;;;;9.63;100.00;101674.66;5050485;28;20033;-53
2023/01/06 09:13:14;;;;;;;4.10;3.70;;;;;;;9.63;100.00;101677.31;5041801;28;20068;-52
2023/01/06 09:15:41;;;;;;;4.88;4.22;;;;;;;9.66;100.00;101673.66;5047266;28;20029;-55
2023/01/06 09:18:08;;;;;;;6.40;4.30;;;;;;;9.70;100.00;101669.00;5059383;28;20172;-54
2023/01/06 09:20:34;;;;;;;6.22;4.40;;;;;;;9.72;100.00;101683.88;5053897;28;20025;-55
2023/01/06 09:23:00;;;;;;;5.35;4.35;;;;;;;9.74;100.00;101687.31;5049096;28;20479;-54
2023/01/06 09:25:25;;;;;;;4.85;4.35;;;;;;;9.75;100.00;101689.00;5053669;28;20025;-53
2023/01/06 09:27:51;;;;;;;4.75;4.35;;;;;;;9.76;100.00;101693.38;5055518;28;20025;-54
2023/01/06 09:30:16;;;;;;;5.30;4.10;;;;;;;9.78;100.00;101695.94;5040604;28;20063;-51
2023/01/06 09:32:42;;;;;;;5.95;4.10;;;;;;;9.79;100.00;101700.28;5056090;28;20044;-56
2023/01/06 09:35:08;;;;;;;4.30;3.90;;;;;;;9.79;100.00;101703.81;5051858;28;20356;-54
2023/01/06 09:37:34;;;;;;;4.13;3.60;;;;;;;9.81;100.00;101709.03;5038924;28;20095;-54
2023/01/06 09:39:59;;;;;;;6.22;4.10;;;;;;;9.80;100.00;101710.81;5041194;28;20074;-51
2023/01/06 09:43:20;;;;;;;3.97;3.60;;;;;;;9.84;100.00;101716.78;5056036;28;20055;-56
2023/01/06 09:45:50;;;;;;;5.35;4.40;;;;;;;9.82;100.00;101718.66;5044338;28;20059;-56
2023/01/06 09:48:23;;;;;;;8.80;4.70;;;;;;;9.84;100.00;101719.44;5044232;28;20029;-57
2023/01/06 09:50:58;;;;;;;5.25;4.30;;;;;;;9.90;100.00;101718.22;5011821;28;20506;-53
2023/01/06 09:53:47;;;;;;;6.22;4.88;;;;;;;9.93;100.00;101721.53;5040033;28;20024;-53
2023/01/06 09:56:16;;;;;;;5.10;4.60;;;;;;;9.97;100.00;101733.66;5047260;28;20025;-52
2023/01/06 09:58:53;;;;;;;4.68;4.22;;;;;;;10.03;100.00;101728.97;5050441;28;20021;-52
2023/01/06 10:01:26;;;;;;;5.40;4.90;;;;;;;10.05;100.00;101730.56;5055122;28;20033;-57
2023/01/06 10:03:51;;;;;;;6.63;4.78;;;;;;;10.09;100.00;101745.38;5054433;28;20063;-56
2023/01/06 10:06:32;;;;;;;5.50;4.95;;;;;;;10.11;100.00;101732.00;5054967;28;20071;-57
2023/01/06 10:09:00;;;;;;;6.50;4.90;;;;;;;10.11;100.00;101729.38;5052430;28;20510;-55
2023/01/06 10:11:39;;;;;;;6.95;4.72;;;;;;;10.11;100.00;101732.88;5053489;28;20445;-52
2023/01/06 10:14:17;;;;;;;8.75;4.43;;;;;;;10.10;100.00;101733.78;5044227;28;20021;-56
2023/01/06 10:16:48;;;;;;;6.15;4.28;;;;;;;10.10;100.00;101732.94;5040563;28;20483;-55
2023/01/06 10:19:38;;;;;;;7.70;4.22;;;;;;;10.08;100.00;101730.38;5040339;28;20029;-57
2023/01/06 10:22:22;;;;;;;8.13;4.13;;;;;;;10.07;100.00;101730.47;5036003;28;20522;-56
2023/01/06 10:25:11;;;;;;;6.63;4.25;;;;;;;10.05;100.00;101733.22;5037212;28;20379;-53
2023/01/06 10:27:44;;;;;;;7.03;3.90;;;;;;;10.03;100.00;101740.44;5036156;28;20029;-55
2023/01/06 10:30:25;;;;;;;8.02;3.70;;;;;;;10.01;100.00;101750.28;5034500;28;20018;-54
2023/01/06 10:32:51;;;;;;;6.60;3.83;;;;;;;9.98;100.00;101731.88;5040900;28;20041;-53
2023/01/06 10:35:21;;;;;;;5.15;3.70;;;;;;;9.99;100.00;101738.88;5047683;28;20367;-53
2023/01/06 10:37:49;;;;;;;5.00;3.90;;;;;;;9.98;100.00;101738.03;5037690;28;20026;-52
2023/01/06 10:40:28;;;;;;;5.18;3.55;;;;;;;10.02;100.00;101738.72;5048920;28;20033;-56
2023/01/06 10:43:07;;;;;;;4.90;4.10;;;;;;;10.08;100.00;101733.03;5047547;28;20024;-57
2023/01/06 10:45:46;;;;;;;9.02;4.43;;;;;;;10.11;100.00;101732.00;5039830;28;20024;-57
2023/01/06 10:48:19;;;;;;;7.90;5.30;;;;;;;10.12;100.00;101731.91;5064078;28;20513;-56
2023/01/06 10:50:44;;;;;;;10.73;5.43;;;;;;;10.14;100.00;101734.47;5050724;28;20114;-56
2023/01/06 10:53:14;;;;;;;6.40;5.80;;;;;;;10.16;100.00;101725.47;5044380;28;20025;-55
2023/01/06 10:55:56;;;;;;;7.82;6.53;;;;;;;10.16;100.00;101729.94;5034667;28;20371;-55
2023/01/06 10:58:34;;;;;;;8.00;6.97;;;;;;;10.15;100.00;101729.06;5034262;28;20034;-56
2023/01/06 11:01:06;;;;;;;8.67;6.67;;;;;;;10.13;100.00;101733.63;5034468;28;20411;-55
2023/01/06 11:03:32;;;;;;;8.85;6.78;;;;;;;10.12;100.00;101737.19;5032889;28;20294;-54
2023/01/06 11:06:07;;;;;;;8.43;7.00;;;;;;;10.10;100.00;101739.09;5033174;28;20026;-56
2023/01/06 11:08:33;;;;;;;8.07;7.25;;;;;;;10.09;100.00;101745.38;5035968;28;20401;-56
2023/01/06 11:10:58;;;;;;;8.27;7.40;;;;;;;10.10;100.00;101738.25;5037733;28;20025;-54
2023/01/06 11:13:35;;;;;;;10.70;8.25;;;;;;;10.11;100.00;101739.97;5036666;28;20804;-55
2023/01/06 11:16:05;;;;;;;12.10;8.60;;;;;;;10.09;100.00;101732.09;5046705;28;20288;-56
2023/01/06 11:18:32;;;;;;;8.88;7.90;;;;;;;10.13;100.00;101736.28;5051728;28;20021;-53
2023/01/06 11:21:08;;;;;;;10.52;8.20;;;;;;;10.17;100.00;101731.63;5052401;28;20071;-55
2023/01/06 11:23:36;;;;;;;11.07;8.00;;;;;;;10.18;100.00;101733.34;5031509;28;20407;-56
2023/01/06 11:26:05;;;;;;;9.40;7.28;;;;;;;10.18;99.83;101736.84;5053533;28;20041;-56
2023/01/06 11:28:31;;;;;;;12.32;6.57;;;;;;;10.18;98.35;101736.00;5051930;28;20041;-56
2023/01/06 11:31:03;;;;;;;7.80;6.32;;;;;;;10.16;96.73;101733.44;5049096;28;20498;-55
2023/01/06 11:33:30;;;;;;;10.23;5.70;;;;;;;10.13;95.28;101728.31;5045824;28;20048;-55
2023/01/06 11:35:57;;;;;;;9.68;4.63;;;;;;;10.12;94.22;101739.00;5053994;28;20039;-56
2023/01/06 11:38:23;;;;;;;9.55;4.80;;;;;;;10.10;93.82;101732.94;5052228;28;20048;-55